Time;durP1;ratioP1;P1;durP2;ratioP2;P2;SDS_P1;SDS_P2;PMS_P1;PMS_P2;Temp;Humidity;BMP_temperature;BMP_pressure;BME280_temperature;BME280_humidity;BME280_pressure;Samples;Min_cycle;Max_cycle;Signal;HPM_P1;HPM_P2
2022/07/12 00:01:56;;;;;;;2.75;1.80;;;16.60;99.90;;;;;;5012271;28;20026;-72
2022/07/12 00:04:22;;;;;;;2.03;1.50;;;16.60;99.90;;;;;;5011775;28;20120;-72
2022/07/12 00:06:47;;;;;;;3.05;2.10;;;16.60;99.90;;;;;;5010604;28;20376;-71
2022/07/12 00:09:13;;;;;;;2.58;1.98;;;16.60;99.90;;;;;;5011945;28;20457;-73
2022/07/12 00:11:39;;;;;;;2.85;2.17;;;16.60;99.90;;;;;;5010489;28;20041;-74
2022/07/12 00:14:05;;;;;;;2.25;2.03;;;16.60;99.90;;;;;;5010938;28;20508;-72
2022/07/12 00:16:31;;;;;;;3.13;1.83;;;16.60;99.90;;;;;;5011356;28;20121;-74
2022/07/12 00:18:57;;;;;;;2.72;1.70;;;16.60;99.90;;;;;;5010141;28;20124;-73
2022/07/12 00:21:22;;;;;;;3.05;2.13;;;16.70;99.90;;;;;;5011514;28;20364;-72
2022/07/12 00:23:48;;;;;;;2.63;1.83;;;16.60;99.90;;;;;;5011419;28;20062;-74
2022/07/12 00:26:14;;;;;;;2.33;1.92;;;16.60;99.90;;;;;;5011277;28;20066;-73
2022/07/12 00:28:40;;;;;;;2.40;1.85;;;16.60;99.90;;;;;;5011717;28;20069;-73
2022/07/12 00:31:09;;;;;;;2.47;1.40;;;16.60;99.90;;;;;;5011461;28;20637;-73
2022/07/12 00:33:35;;;;;;;20.55;12.82;;;16.60;99.90;;;;;;5011259;28;20068;-72
2022/07/12 00:36:01;;;;;;;27.45;16.60;;;16.60;99.90;;;;;;5010041;28;20038;-73
2022/07/12 00:38:26;;;;;;;6.35;4.50;;;16.70;99.90;;;;;;5011051;28;20175;-74
2022/07/12 00:40:52;;;;;;;2.92;2.20;;;16.70;99.90;;;;;;5010404;28;20368;-73
2022/07/12 00:43:18;;;;;;;2.72;2.00;;;16.70;99.90;;;;;;5010950;28;20541;-73
2022/07/12 00:45:44;;;;;;;2.70;2.03;;;16.70;99.90;;;;;;5011020;28;20034;-71
2022/07/12 00:48:11;;;;;;;3.38;2.33;;;16.70;99.90;;;;;;5011111;28;20044;-72
2022/07/12 00:50:36;;;;;;;3.42;2.63;;;16.70;99.90;;;;;;5011227;28;20105;-72
2022/07/12 00:53:03;;;;;;;3.00;2.13;;;16.80;99.90;;;;;;5011629;28;20104;-74
2022/07/12 00:55:29;;;;;;;3.90;2.78;;;16.80;99.90;;;;;;5011312;28;20054;-73
2022/07/12 00:57:54;;;;;;;3.50;2.30;;;16.80;99.90;;;;;;5011082;28;20064;-73
2022/07/12 01:00:28;;;;;;;3.80;2.35;;;16.80;99.90;;;;;;5009739;28;20037;-73
2022/07/12 01:03:00;;;;;;;4.15;2.28;;;16.90;99.90;;;;;;5010963;28;20053;-73
2022/07/12 01:05:28;;;;;;;2.50;1.90;;;16.90;99.90;;;;;;5010922;28;20104;-73
2022/07/12 01:07:55;;;;;;;3.45;2.00;;;16.90;99.90;;;;;;5011416;28;20033;-73
2022/07/12 01:10:21;;;;;;;2.53;1.87;;;16.90;99.90;;;;;;5010919;28;20026;-73
2022/07/12 01:12:46;;;;;;;5.72;2.22;;;16.80;99.90;;;;;;5009955;28;20376;-73
2022/07/12 01:15:12;;;;;;;2.92;1.75;;;16.90;99.90;;;;;;5009669;28;20100;-72
2022/07/12 01:17:39;;;;;;;7.30;2.20;;;16.90;99.90;;;;;;5010575;28;20120;-74
2022/07/12 01:20:06;;;;;;;3.45;2.38;;;16.90;99.90;;;;;;5011256;28;20026;-74
2022/07/12 01:22:34;;;;;;;4.05;2.30;;;17.00;99.90;;;;;;5010729;28;20034;-74
2022/07/12 01:25:02;;;;;;;3.85;2.17;;;17.00;99.90;;;;;;5010603;28;20112;-73
2022/07/12 01:27:28;;;;;;;3.35;2.30;;;17.00;99.90;;;;;;5010435;28;20033;-72
2022/07/12 01:29:55;;;;;;;2.60;2.28;;;17.00;99.90;;;;;;5009439;28;20036;-73
2022/07/12 01:32:24;;;;;;;3.65;2.33;;;17.00;99.90;;;;;;5009778;28;20025;-73
2022/07/12 01:34:55;;;;;;;2.80;2.33;;;17.00;99.90;;;;;;5009539;28;20022;-72
2022/07/12 01:37:22;;;;;;;4.78;2.10;;;17.00;99.90;;;;;;5028633;28;20034;-73
2022/07/12 01:39:50;;;;;;;2.42;2.15;;;17.00;99.90;;;;;;5030072;28;20032;-73
2022/07/12 01:42:16;;;;;;;5.65;2.55;;;17.00;99.90;;;;;;5030278;28;20038;-73
2022/07/12 01:44:42;;;;;;;2.92;1.90;;;17.10;99.90;;;;;;5030488;28;20024;-73
2022/07/12 01:47:08;;;;;;;2.88;2.08;;;17.10;99.90;;;;;;5029489;28;20083;-73
2022/07/12 01:49:34;;;;;;;4.30;3.00;;;17.10;99.90;;;;;;5030046;28;20455;-73
2022/07/12 01:51:59;;;;;;;2.80;2.17;;;17.20;99.90;;;;;;5030222;28;20202;-73
2022/07/12 01:54:25;;;;;;;2.42;2.05;;;17.10;99.90;;;;;;5029755;28;20376;-73
2022/07/12 01:56:55;;;;;;;3.50;2.38;;;17.20;99.90;;;;;;5030152;28;20053;-73
2022/07/12 01:59:21;;;;;;;3.65;2.33;;;17.20;99.90;;;;;;5029917;28;20436;-72
2022/07/12 02:01:48;;;;;;;3.50;2.22;;;17.20;99.90;;;;;;5029294;28;20117;-75
2022/07/12 02:04:17;;;;;;;4.35;2.33;;;17.10;99.90;;;;;;5030307;28;20093;-73
2022/07/12 02:06:44;;;;;;;3.42;2.08;;;17.20;99.90;;;;;;5029994;28;20033;-73
2022/07/12 02:09:10;;;;;;;2.83;1.95;;;17.20;99.90;;;;;;5030016;28;20029;-74
2022/07/12 02:11:36;;;;;;;2.90;2.20;;;17.20;99.90;;;;;;5028709;28;20501;-73
2022/07/12 02:14:02;;;;;;;2.92;2.42;;;17.20;99.90;;;;;;5030502;28;20033;-73
2022/07/12 02:16:27;;;;;;;2.58;2.20;;;17.20;99.90;;;;;;5029944;28;20036;-73
2022/07/12 02:18:53;;;;;;;2.85;2.50;;;17.20;99.90;;;;;;5029739;28;20034;-74
2022/07/12 02:21:19;;;;;;;4.93;3.35;;;17.20;99.90;;;;;;5029753;28;20068;-73
2022/07/12 02:23:44;;;;;;;4.03;3.03;;;17.20;99.90;;;;;;5032295;28;20068;-74
2022/07/12 02:26:16;;;;;;;5.05;3.17;;;17.20;99.90;;;;;;5033633;28;20033;-74
2022/07/12 02:28:42;;;;;;;3.17;2.88;;;17.30;99.90;;;;;;5033964;28;20013;-72
2022/07/12 02:31:26;;;;;;;6.60;3.17;;;17.30;99.90;;;;;;5033300;28;20120;-73
2022/07/12 02:33:52;;;;;;;3.78;2.80;;;17.30;99.90;;;;;;5032255;28;20227;-72
2022/07/12 02:36:21;;;;;;;4.75;2.88;;;17.30;99.90;;;;;;5033297;28;20506;-72
2022/07/12 02:38:47;;;;;;;6.05;3.40;;;17.40;99.90;;;;;;5033105;28;20216;-73
2022/07/12 02:41:16;;;;;;;5.82;3.10;;;17.30;99.90;;;;;;5032964;28;20545;-73
2022/07/12 02:43:42;;;;;;;3.10;2.78;;;17.40;99.90;;;;;;5032579;28;20414;-72
2022/07/12 02:46:20;;;;;;;4.63;2.90;;;17.40;99.90;;;;;;5031911;28;20112;-73
2022/07/12 02:48:46;;;;;;;4.68;2.67;;;17.40;99.90;;;;;;5032907;28;20099;-73
2022/07/12 02:51:21;;;;;;;2.95;2.63;;;17.40;99.90;;;;;;5033059;28;20029;-74
2022/07/12 02:53:47;;;;;;;3.45;2.78;;;17.40;99.90;;;;;;5031585;28;20403;-72
2022/07/12 02:56:18;;;;;;;5.55;3.10;;;17.40;99.90;;;;;;5032534;28;20087;-73
2022/07/12 02:58:44;;;;;;;4.45;2.85;;;17.40;99.90;;;;;;5033389;28;20029;-72
2022/07/12 03:01:22;;;;;;;3.63;2.67;;;17.40;99.90;;;;;;5031519;28;20478;-73
2022/07/12 03:03:48;;;;;;;4.63;3.38;;;17.50;99.90;;;;;;5032659;28;20121;-73
2022/07/12 03:06:18;;;;;;;5.35;2.80;;;17.50;99.90;;;;;;5032596;28;20061;-72
2022/07/12 03:08:44;;;;;;;2.60;2.40;;;17.50;99.90;;;;;;5031520;28;20037;-73
2022/07/12 03:11:29;;;;;;;4.07;2.80;;;17.50;99.90;;;;;;5032480;28;20378;-72
2022/07/12 03:13:55;;;;;;;5.22;3.22;;;17.50;99.90;;;;;;5032933;28;20010;-73
2022/07/12 03:16:21;;;;;;;4.03;3.63;;;17.50;99.90;;;;;;5033053;28;20109;-73
2022/07/12 03:18:46;;;;;;;5.60;3.38;;;17.50;99.90;;;;;;5031875;28;20042;-75
2022/07/12 03:21:27;;;;;;;9.75;2.90;;;17.50;99.90;;;;;;5032507;28;20360;-74
2022/07/12 03:23:53;;;;;;;3.22;2.72;;;17.50;99.90;;;;;;5032406;28;20026;-74
2022/07/12 03:26:26;;;;;;;7.47;3.03;;;17.60;99.90;;;;;;5032284;28;20096;-73
2022/07/12 03:28:52;;;;;;;4.45;3.05;;;17.60;99.90;;;;;;5032834;28;20117;-73
2022/07/12 03:31:30;;;;;;;3.45;3.10;;;17.60;99.90;;;;;;5032210;28;20168;-73
2022/07/12 03:33:55;;;;;;;4.05;3.13;;;17.60;99.90;;;;;;5031398;28;20128;-73
2022/07/12 03:36:21;;;;;;;4.03;3.20;;;17.60;99.90;;;;;;5031856;28;20116;-73
2022/07/12 03:38:47;;;;;;;6.07;3.72;;;17.60;99.90;;;;;;5030747;28;20061;-74
2022/07/12 03:41:21;;;;;;;4.13;2.92;;;17.70;99.90;;;;;;5031857;28;20030;-74
2022/07/12 03:43:47;;;;;;;5.93;3.85;;;17.70;99.90;;;;;;5031238;28;20044;-74
2022/07/12 03:46:22;;;;;;;3.83;3.22;;;17.60;99.90;;;;;;5032347;28;20467;-73
2022/07/12 03:48:48;;;;;;;5.95;4.13;;;17.70;99.90;;;;;;5032064;28;20088;-74
2022/07/12 03:51:22;;;;;;;5.50;3.55;;;17.60;99.90;;;;;;5031764;28;20037;-73
2022/07/12 03:53:48;;;;;;;4.68;2.90;;;17.60;99.90;;;;;;5031391;28;20040;-74
2022/07/12 03:59:07;;;;;;;4.65;3.05;;;17.60;99.90;;;;;;5032088;28;20409;-75
2022/07/12 04:01:32;;;;;;;3.47;3.03;;;17.60;99.90;;;;;;5031697;28;20022;-73
2022/07/12 04:03:58;;;;;;;6.32;2.83;;;17.70;99.90;;;;;;5031422;28;20474;-73
2022/07/12 04:06:24;;;;;;;4.90;3.55;;;17.60;99.90;;;;;;5030556;28;20026;-74
2022/07/12 04:08:50;;;;;;;2.95;2.63;;;17.60;99.90;;;;;;5030397;28;20032;-73
2022/07/12 04:11:16;;;;;;;5.15;2.55;;;17.60;99.90;;;;;;5031605;28;20030;-73
2022/07/12 04:13:41;;;;;;;4.72;2.70;;;17.60;99.90;;;;;;5030886;28;20040;-73
2022/07/12 04:16:19;;;;;;;5.40;2.67;;;17.70;99.90;;;;;;5031344;28;20053;-73
2022/07/12 04:18:45;;;;;;;;;;;17.70;99.90;;;;;;5031529;28;20102;-74
2022/07/12 04:21:17;;;;;;;4.78;3.20;;;17.60;99.90;;;;;;5031235;28;19920;-73
2022/07/12 04:23:42;;;;;;;3.83;2.40;;;17.60;99.90;;;;;;5031201;28;20401;-72
2022/07/12 04:26:20;;;;;;;4.32;3.03;;;17.60;99.90;;;;;;5031693;28;20030;-73
2022/07/12 04:28:46;;;;;;;;;;;17.60;99.90;;;;;;5031692;28;20115;-72
2022/07/12 04:31:30;;;;;;;4.53;2.90;;;17.60;99.90;;;;;;5030023;28;19920;-74
2022/07/12 04:33:56;;;;;;;5.93;3.55;;;17.60;99.90;;;;;;5030996;28;20232;-72
2022/07/12 04:36:28;;;;;;;5.03;3.28;;;17.70;99.90;;;;;;5029865;28;20025;-73
2022/07/12 04:38:53;;;;;;;5.43;3.50;;;17.70;99.90;;;;;;5030838;28;20025;-73
2022/07/12 04:41:25;;;;;;;4.28;2.67;;;17.80;99.90;;;;;;5030874;28;20095;-73
2022/07/12 04:43:51;;;;;;;5.40;3.85;;;17.70;99.90;;;;;;5031771;28;20025;-73
2022/07/12 04:46:29;;;;;;;8.95;4.28;;;17.80;99.90;;;;;;5030793;28;20038;-73
2022/07/12 04:48:54;;;;;;;;;;;17.80;99.90;;;;;;5030216;28;20034;-73
2022/07/12 04:51:20;;;;;;;7.47;4.10;;;17.80;99.90;;;;;;5030592;28;20236;-73
2022/07/12 04:53:45;;;;;;;7.43;4.03;;;17.80;99.90;;;;;;5030527;28;20411;-72
2022/07/12 04:56:26;;;;;;;8.13;4.82;;;17.80;99.90;;;;;;5029602;28;20132;-73
2022/07/12 04:58:52;;;;;;;7.22;4.55;;;17.80;99.90;;;;;;5030905;28;20029;-73
2022/07/12 05:01:28;;;;;;;5.68;4.32;;;17.80;99.90;;;;;;5030590;28;20033;-73
2022/07/12 05:03:53;;;;;;;8.38;4.20;;;17.80;99.90;;;;;;5030605;28;20025;-73
2022/07/12 05:06:31;;;;;;;5.57;3.88;;;17.80;99.90;;;;;;5030755;28;20501;-73
2022/07/12 05:08:57;;;;;;;4.88;4.03;;;17.90;99.90;;;;;;5030408;28;20056;-73
2022/07/12 05:11:23;;;;;;;5.55;4.05;;;17.90;99.90;;;;;;5030441;28;20018;-74
2022/07/12 05:13:49;;;;;;;7.25;4.50;;;17.80;99.80;;;;;;5031176;28;20447;-73
2022/07/12 05:16:31;;;;;;;5.70;3.83;;;17.80;99.70;;;;;;5029136;28;20367;-72
2022/07/12 05:18:57;;;;;;;4.75;3.67;;;17.80;99.90;;;;;;5030102;28;20068;-74
2022/07/12 05:21:23;;;;;;;7.80;3.67;;;17.90;99.60;;;;;;5030295;28;20060;-72
2022/07/12 05:23:48;;;;;;;5.65;4.43;;;17.90;99.40;;;;;;5026830;28;20057;-72
2022/07/12 05:26:42;;;;;;;5.40;3.63;;;17.90;99.40;;;;;;5010358;28;20052;-72
2022/07/12 05:29:08;;;;;;;6.13;3.67;;;17.90;99.40;;;;;;5010788;28;20032;-73
2022/07/12 05:31:34;;;;;;;5.47;3.67;;;17.90;99.30;;;;;;5009295;28;20026;-72
2022/07/12 05:34:00;;;;;;;6.18;3.05;;;18.00;99.30;;;;;;5010489;28;20464;-74
2022/07/12 05:36:26;;;;;;;4.85;3.33;;;18.00;99.10;;;;;;5010258;28;20088;-72
2022/07/12 05:38:52;;;;;;;4.72;3.67;;;18.10;98.90;;;;;;5010297;28;20065;-72
2022/07/12 05:41:36;;;;;;;3.95;3.30;;;18.10;98.70;;;;;;5009288;28;20444;-74
2022/07/12 05:44:02;;;;;;;5.22;3.60;;;18.10;98.60;;;;;;5010645;28;20022;-75
2022/07/12 05:46:36;;;;;;;5.18;3.30;;;18.10;98.50;;;;;;5010203;28;20048;-73
2022/07/12 05:49:02;;;;;;;4.53;3.22;;;18.10;98.50;;;;;;5010280;28;20041;-74
2022/07/12 05:54:24;;;;;;;5.43;3.47;;;18.20;98.30;;;;;;5010123;28;20527;-74
2022/07/12 05:56:50;;;;;;;6.32;3.65;;;18.30;98.30;;;;;;5008771;28;20208;-74
2022/07/12 05:59:19;;;;;;;3.95;3.55;;;18.10;98.00;;;;;;5012692;28;20048;-72
2022/07/12 06:01:45;;;;;;;7.55;4.00;;;18.20;98.10;;;;;;5013230;28;20040;-71
2022/07/12 06:04:10;;;;;;;5.68;3.63;;;18.30;98.20;;;;;;5014028;28;20372;-71
2022/07/12 06:06:36;;;;;;;4.57;3.60;;;18.20;98.00;;;;;;5013802;28;20060;-70
2022/07/12 06:09:03;;;;;;;5.38;3.72;;;18.30;98.10;;;;;;5013868;28;20176;-71
2022/07/12 06:11:29;;;;;;;5.45;3.88;;;18.40;98.00;;;;;;5014016;28;20106;-71
2022/07/12 06:13:55;;;;;;;5.18;3.72;;;18.40;97.80;;;;;;5014187;28;20018;-70
2022/07/12 06:16:23;;;;;;;5.10;3.47;;;18.40;98.00;;;;;;5012523;28;20034;-71
2022/07/12 06:18:49;;;;;;;6.05;3.72;;;18.50;98.10;;;;;;5013635;28;20087;-71
2022/07/12 06:21:22;;;;;;;6.22;3.42;;;18.60;97.70;;;;;;5013620;28;20470;-71
2022/07/12 06:23:47;;;;;;;3.92;3.17;;;18.50;97.50;;;;;;5013725;28;20038;-71
2022/07/12 06:26:31;;;;;;;6.57;3.53;;;18.60;97.60;;;;;;5013361;28;20474;-71
2022/07/12 06:28:57;;;;;;;5.68;3.83;;;18.70;97.50;;;;;;5013878;28;20033;-71
2022/07/12 06:31:29;;;;;;;4.57;3.42;;;18.80;97.60;;;;;;5013876;28;20034;-72
2022/07/12 06:33:54;;;;;;;4.88;3.45;;;18.80;97.50;;;;;;5013795;28;20403;-72
2022/07/12 06:36:20;;;;;;;5.50;3.75;;;18.80;97.00;;;;;;5012443;28;20056;-71
2022/07/12 06:38:45;;;;;;;5.13;3.67;;;18.60;97.00;;;;;;5012055;28;20057;-71
2022/07/12 06:41:11;;;;;;;5.63;3.60;;;18.60;97.00;;;;;;5013075;28;20025;-71
2022/07/12 06:43:37;;;;;;;7.28;4.20;;;18.70;97.30;;;;;;5013643;28;20415;-71
2022/07/12 06:46:02;;;;;;;5.20;3.47;;;18.80;97.00;;;;;;5013003;28;20044;-71
2022/07/12 06:48:28;;;;;;;6.07;3.92;;;18.80;97.20;;;;;;5013190;28;20038;-71
2022/07/12 06:50:54;;;;;;;4.22;3.47;;;19.00;97.10;;;;;;5013161;28;20034;-71
2022/07/12 06:53:20;;;;;;;5.80;3.58;;;18.90;97.00;;;;;;5012957;28;20040;-71
2022/07/12 06:55:46;;;;;;;6.90;3.78;;;19.00;97.10;;;;;;5013257;28;20058;-71
2022/07/12 06:58:12;;;;;;;5.30;3.30;;;18.90;96.90;;;;;;5012985;28;20042;-70
2022/07/12 07:00:37;;;;;;;5.38;3.58;;;18.90;96.50;;;;;;5012752;28;20022;-70
2022/07/12 07:03:06;;;;;;;5.63;3.58;;;19.00;96.80;;;;;;4995371;28;20038;-70
2022/07/12 07:05:31;;;;;;;5.55;3.75;;;19.00;96.50;;;;;;5011489;28;20103;-72
2022/07/12 07:07:57;;;;;;;5.38;3.25;;;19.00;96.50;;;;;;5013185;28;20396;-71
2022/07/12 07:10:23;;;;;;;4.55;3.65;;;19.00;96.30;;;;;;5011799;28;20056;-70
2022/07/12 07:12:48;;;;;;;5.90;3.45;;;19.00;96.20;;;;;;5012942;28;20065;-71
2022/07/12 07:15:15;;;;;;;5.15;3.60;;;18.90;96.00;;;;;;5012790;28;20038;-71
2022/07/12 07:17:42;;;;;;;3.92;3.35;;;18.90;96.30;;;;;;5012694;28;20061;-71
2022/07/12 07:20:11;;;;;;;6.80;3.67;;;19.10;96.10;;;;;;5012988;28;20502;-71
2022/07/12 07:22:37;;;;;;;4.25;3.35;;;19.10;96.00;;;;;;5012737;28;20136;-71
2022/07/12 07:25:03;;;;;;;3.63;3.13;;;19.20;96.20;;;;;;5012401;28;20026;-70
2022/07/12 07:27:29;;;;;;;5.93;3.50;;;19.30;95.80;;;;;;5012347;28;20034;-71
2022/07/12 07:32:39;;;;;;;4.75;3.25;;;19.60;95.70;;;;;;5012180;28;20040;-71
2022/07/12 07:35:05;;;;;;;4.57;3.70;;;19.70;95.50;;;;;;5012687;28;20161;-70
2022/07/12 07:37:32;;;;;;;4.47;3.30;;;19.60;95.40;;;;;;5012216;28;20034;-71
2022/07/12 07:39:58;;;;;;;4.15;3.30;;;19.50;95.50;;;;;;5012256;28;20026;-71
2022/07/12 07:42:24;;;;;;;8.88;3.70;;;19.50;95.50;;;;;;5012609;28;20403;-70
2022/07/12 07:44:50;;;;;;;5.03;3.70;;;19.40;95.50;;;;;;5012273;28;20030;-70
2022/07/12 07:47:15;;;;;;;3.50;2.80;;;19.40;95.50;;;;;;5011959;28;20095;-71
2022/07/12 07:49:41;;;;;;;5.85;3.25;;;19.40;95.50;;;;;;5011753;28;20029;-71
2022/07/12 07:52:07;;;;;;;4.07;3.40;;;19.40;95.30;;;;;;5012061;28;20034;-70
2022/07/12 07:54:32;;;;;;;3.40;3.08;;;19.50;95.10;;;;;;5012021;28;20064;-69
2022/07/12 07:56:58;;;;;;;4.65;3.35;;;19.60;95.30;;;;;;5011943;28;20025;-69
2022/07/12 07:59:23;;;;;;;7.55;3.38;;;19.70;95.20;;;;;;5011735;28;20026;-70
2022/07/12 08:01:52;;;;;;;6.03;3.67;;;19.90;95.00;;;;;;5012396;28;20041;-69
2022/07/12 08:04:20;;;;;;;6.45;4.50;;;20.00;94.80;;;;;;5011867;28;20037;-69
2022/07/12 08:06:46;;;;;;;4.30;3.20;;;20.10;94.90;;;;;;5011655;28;20022;-70
2022/07/12 08:09:13;;;;;;;4.40;2.80;;;20.20;95.00;;;;;;5011845;28;20030;-70
2022/07/12 08:11:39;;;;;;;4.70;2.67;;;20.40;94.90;;;;;;5011535;28;20034;-69
2022/07/12 08:14:06;;;;;;;3.42;2.55;;;20.60;94.70;;;;;;5010970;28;20022;-69
2022/07/12 08:16:33;;;;;;;2.97;2.65;;;20.60;94.10;;;;;;5011758;28;20033;-70
2022/07/12 08:18:59;;;;;;;5.82;2.92;;;20.90;94.20;;;;;;5011384;28;20033;-70
2022/07/12 08:21:28;;;;;;;3.00;2.60;;;21.40;93.50;;;;;;5011092;28;20026;-69
2022/07/12 08:23:54;;;;;;;3.95;2.70;;;22.60;93.60;;;;;;5011392;28;20391;-69
2022/07/12 08:26:21;;;;;;;2.63;2.42;;;23.50;92.40;;;;;;5011392;28;20028;-70
2022/07/12 08:28:46;;;;;;;2.80;2.33;;;24.10;92.00;;;;;;5011657;28;20030;-70
2022/07/12 08:31:21;;;;;;;3.63;2.50;;;24.80;89.60;;;;;;5011166;28;20033;-69
2022/07/12 08:33:47;;;;;;;3.90;2.38;;;25.60;90.10;;;;;;5011216;28;20110;-69
2022/07/12 08:36:28;;;;;;;4.13;2.33;;;26.20;87.20;;;;;;5011245;28;20036;-69
2022/07/12 08:38:53;;;;;;;5.07;2.65;;;26.60;82.80;;;;;;5011084;28;20034;-69
2022/07/12 08:41:19;;;;;;;2.72;2.30;;;27.20;83.60;;;;;;5010830;28;20041;-70
2022/07/12 08:43:45;;;;;;;4.50;2.35;;;27.70;81.50;;;;;;5012024;28;20328;-70
2022/07/12 08:46:26;;;;;;;3.40;3.03;;;27.60;76.80;;;;;;5011355;28;20034;-70
2022/07/12 08:48:51;;;;;;;20.38;13.38;;;27.80;78.60;;;;;;5011060;28;20041;-70
2022/07/12 08:51:23;;;;;;;2.97;2.50;;;28.60;76.10;;;;;;5010783;28;20392;-70
2022/07/12 08:54:15;;;;;;;2.90;2.33;;;29.20;72.20;;;;;;5011649;28;20119;-70
2022/07/12 08:56:43;;;;;;;2.53;2.03;;;30.00;69.70;;;;;;5010808;28;20033;-71
2022/07/12 08:59:20;;;;;;;4.32;1.63;;;29.60;69.40;;;;;;5011231;28;20033;-70
2022/07/12 09:01:52;;;;;;;2.85;2.20;;;30.20;68.50;;;;;;5011234;28;20076;-71
2022/07/12 09:04:23;;;;;;;3.30;2.70;;;29.80;67.30;;;;;;5010824;28;20460;-71
2022/07/12 09:06:50;;;;;;;2.10;1.90;;;30.10;67.50;;;;;;5011142;28;20080;-70
2022/07/12 09:09:31;;;;;;;1.88;1.77;;;31.20;65.30;;;;;;5009730;28;20256;-69
2022/07/12 09:11:57;;;;;;;2.78;1.98;;;31.20;64.40;;;;;;5010893;28;20034;-69
2022/07/12 09:14:23;;;;;;;3.22;2.20;;;31.60;61.20;;;;;;5010672;28;20433;-69
2022/07/12 09:17:00;;;;;;;2.95;1.98;;;31.10;61.50;;;;;;5011002;28;20034;-70
2022/07/12 09:19:25;;;;;;;2.88;2.00;;;30.70;61.30;;;;;;5010720;28;20113;-70
2022/07/12 09:21:54;;;;;;;6.18;2.42;;;30.10;61.30;;;;;;5010813;28;20452;-70
2022/07/12 09:24:24;;;;;;;4.10;2.13;;;29.80;63.10;;;;;;5009727;28;20045;-72
2022/07/12 09:26:54;;;;;;;3.38;2.10;;;29.60;62.40;;;;;;5010887;28;20040;-72
2022/07/12 09:29:20;;;;;;;2.35;2.15;;;29.50;62.20;;;;;;5011290;28;20055;-74
2022/07/12 09:37:21;;;;;;;2.50;2.30;;;29.30;62.20;;;;;;5010437;28;20096;-74
2022/07/12 09:39:48;;;;;;;3.17;2.35;;;29.30;63.40;;;;;;5010488;28;20041;-74
2022/07/12 09:42:14;;;;;;;2.33;1.90;;;28.50;63.40;;;;;;5010453;28;20022;-74
2022/07/12 09:44:41;;;;;;;2.85;2.10;;;28.30;63.90;;;;;;5010334;28;20026;-73
2022/07/12 09:47:13;;;;;;;2.67;2.17;;;28.20;64.70;;;;;;5010885;28;20052;-74
2022/07/12 09:49:40;;;;;;;1.92;1.73;;;27.50;65.20;;;;;;5006211;28;20053;-75
2022/07/12 09:52:21;;;;;;;2.35;2.15;;;27.50;64.80;;;;;;5006765;28;20022;-76
2022/07/12 09:54:50;;;;;;;4.40;2.28;;;27.60;65.90;;;;;;5010213;28;20149;-74
2022/07/12 09:57:26;;;;;;;2.80;2.58;;;27.60;65.20;;;;;;5010064;28;20030;-74
2022/07/12 09:59:53;;;;;;;48.97;5.57;;;27.40;65.60;;;;;;5009929;28;20127;-75
2022/07/12 10:02:22;;;;;;;39.17;5.15;;;27.30;67.50;;;;;;5009704;28;20062;-73
2022/07/12 10:04:48;;;;;;;81.18;8.75;;;26.90;68.00;;;;;;5010456;28;20441;-74
2022/07/12 10:07:15;;;;;;;33.22;5.60;;;27.20;67.80;;;;;;5008712;28;20376;-74
2022/07/12 10:09:42;;;;;;;;;;;27.20;66.90;;;;;;5010461;28;20520;-73
2022/07/12 10:12:12;;;;;;;5.77;2.63;;;27.30;66.10;;;;;;5009692;28;19986;-74
2022/07/12 10:14:39;;;;;;;2.40;2.20;;;27.30;67.30;;;;;;5010096;28;20378;-74
2022/07/12 10:17:09;;;;;;;27.85;4.25;;;27.30;66.70;;;;;;5010248;28;20017;-74
2022/07/12 10:19:36;;;;;;;9.23;3.53;;;27.10;67.30;;;;;;5010312;28;20053;-75
2022/07/12 10:22:04;;;;;;;10.93;6.60;;;26.90;67.30;;;;;;5009965;28;20212;-73
2022/07/12 10:24:32;;;;;;;6.72;4.82;;;26.80;67.20;;;;;;5009908;28;20109;-74
2022/07/12 10:27:13;;;;;;;7.63;3.60;;;26.80;67.50;;;;;;5010459;28;20466;-73
2022/07/12 10:29:52;;;;;;;5.78;2.95;;;26.80;67.00;;;;;;5009945;28;20242;-74
2022/07/12 10:32:35;;;;;;;28.45;4.30;;;26.80;67.70;;;;;;5009877;28;20444;-74
2022/07/12 10:35:12;;;;;;;10.05;3.45;;;27.00;67.40;;;;;;5010299;28;20026;-75
2022/07/12 10:37:38;;;;;;;4.28;2.90;;;26.80;67.00;;;;;;5009065;28;20065;-74
2022/07/12 10:40:18;;;;;;;5.13;2.85;;;26.70;67.90;;;;;;5009899;28;20049;-73
2022/07/12 10:43:05;;;;;;;3.25;2.95;;;26.70;67.60;;;;;;5009805;28;20110;-74
2022/07/12 10:45:35;;;;;;;12.35;3.95;;;26.70;67.90;;;;;;5013370;28;20484;-74
2022/07/12 10:48:13;;;;;;;5.65;3.08;;;26.50;68.10;;;;;;5013539;28;20482;-75
2022/07/12 10:50:43;;;;;;;3.53;2.72;;;26.70;67.60;;;;;;5013176;28;20483;-74
2022/07/12 10:53:28;;;;;;;5.50;2.80;;;26.40;66.40;;;;;;5013795;28;20317;-74
2022/07/12 10:56:32;;;;;;;3.15;2.47;;;26.30;66.20;;;;;;5011985;28;20469;-74
2022/07/12 10:58:59;;;;;;;3.25;2.72;;;26.50;65.50;;;;;;5012001;28;20056;-73
2022/07/12 11:01:27;;;;;;;3.35;2.50;;;26.60;64.60;;;;;;5011823;28;20422;-73
2022/07/12 11:04:06;;;;;;;7.10;3.22;;;26.50;64.10;;;;;;5011876;28;20022;-73
2022/07/12 11:06:36;;;;;;;4.60;2.60;;;26.50;63.70;;;;;;5012727;28;20480;-73
2022/07/12 11:09:09;;;;;;;2.85;2.63;;;26.30;64.80;;;;;;5012880;28;20443;-72
2022/07/12 11:11:41;;;;;;;9.40;3.08;;;26.40;65.30;;;;;;5012660;28;20022;-71
2022/07/12 11:14:07;;;;;;;2.50;2.22;;;26.50;64.30;;;;;;5013422;28;20057;-72
2022/07/12 11:16:32;;;;;;;5.45;2.22;;;26.40;63.50;;;;;;5011392;28;20036;-71
2022/07/12 11:18:58;;;;;;;3.85;2.30;;;26.60;65.30;;;;;;5016617;28;20403;-71
2022/07/12 11:21:24;;;;;;;4.90;2.28;;;26.60;64.30;;;;;;5013678;28;20037;-73
2022/07/12 11:23:51;;;;;;;4.93;2.88;;;26.60;64.30;;;;;;5012781;28;20393;-72
2022/07/12 11:26:22;;;;;;;4.38;3.47;;;26.70;64.60;;;;;;5012758;28;20042;-72
2022/07/12 11:28:48;;;;;;;3.08;2.78;;;26.70;63.50;;;;;;5012787;28;20018;-72
2022/07/12 11:31:21;;;;;;;3.65;2.58;;;26.50;63.20;;;;;;5012579;28;20483;-71
2022/07/12 11:33:48;;;;;;;7.63;2.80;;;26.50;63.60;;;;;;5011225;28;20026;-71
2022/07/12 11:36:25;;;;;;;3.17;2.30;;;26.60;62.90;;;;;;5012563;28;20049;-72
2022/07/12 11:38:50;;;;;;;2.30;2.10;;;26.70;63.10;;;;;;5012293;28;20087;-71
2022/07/12 11:41:25;;;;;;;6.65;2.97;;;26.70;63.20;;;;;;5011985;28;20033;-72
2022/07/12 11:43:51;;;;;;;2.53;2.28;;;26.80;63.30;;;;;;5012583;28;20037;-72
2022/07/12 11:46:23;;;;;;;4.25;2.88;;;26.90;62.70;;;;;;5011006;28;20049;-71
2022/07/12 11:48:49;;;;;;;2.53;2.28;;;26.90;60.90;;;;;;5010817;28;20478;-72
2022/07/12 11:51:14;;;;;;;2.78;2.55;;;26.90;61.50;;;;;;5011286;28;20049;-72
2022/07/12 11:53:40;;;;;;;2.85;2.25;;;26.90;61.90;;;;;;5012125;28;20033;-72
2022/07/12 11:56:08;;;;;;;11.63;2.53;;;26.90;60.40;;;;;;5012070;28;20081;-71
2022/07/12 11:58:40;;;;;;;4.85;1.80;;;26.70;59.80;;;;;;5010931;28;20064;-73
2022/07/12 12:01:26;;;;;;;6.93;2.20;;;26.70;59.20;;;;;;5011669;28;20042;-71
2022/07/12 12:03:52;;;;;;;8.90;1.95;;;26.60;58.70;;;;;;5010178;28;20088;-71
2022/07/12 12:06:30;;;;;;;10.57;2.03;;;26.70;58.80;;;;;;5011524;28;20030;-70
2022/07/12 12:09:04;;;;;;;;;;;26.80;59.40;;;;;;5012169;28;20129;-70
2022/07/12 12:11:29;;;;;;;3.42;2.47;;;26.70;59.60;;;;;;5011831;28;19917;-72
2022/07/12 12:13:57;;;;;;;2.70;1.90;;;26.90;60.50;;;;;;5012080;28;20033;-71
2022/07/12 12:16:23;;;;;;;2.15;1.80;;;26.90;59.60;;;;;;5010634;28;20025;-71
2022/07/12 12:18:49;;;;;;;1.60;1.50;;;26.90;59.30;;;;;;5011496;28;20041;-70
2022/07/12 12:21:14;;;;;;;1.35;1.10;;;26.90;56.50;;;;;;5010426;28;20026;-72
2022/07/12 12:23:42;;;;;;;4.63;1.20;;;26.70;56.00;;;;;;5011719;28;20026;-72
2022/07/12 12:26:32;;;;;;;1.13;1.02;;;26.70;55.70;;;;;;5012006;28;20026;-71
2022/07/12 12:28:58;;;;;;;1.40;1.30;;;26.70;56.10;;;;;;5011266;28;20507;-71
2022/07/12 12:31:23;;;;;;;5.35;1.40;;;26.70;57.00;;;;;;5011473;28;20038;-71
2022/07/12 12:33:58;;;;;;;2.55;1.58;;;26.80;58.90;;;;;;5011568;28;20580;-71
2022/07/12 12:36:25;;;;;;;1.40;1.30;;;26.90;59.10;;;;;;5010911;28;20045;-73
2022/07/12 12:38:56;;;;;;;3.38;1.70;;;26.90;59.40;;;;;;5009828;28;20460;-71
2022/07/12 12:41:26;;;;;;;4.05;1.70;;;26.80;59.90;;;;;;5009781;28;20490;-72
2022/07/12 12:44:04;;;;;;;1.42;1.33;;;26.90;58.40;;;;;;5011375;28;20419;-72
2022/07/12 12:49:50;;;;;;;6.28;1.40;;;26.90;58.20;;;;;;5011080;28;20049;-73
2022/07/12 12:52:17;;;;;;;3.20;1.70;;;27.00;58.40;;;;;;5010835;28;20417;-71
2022/07/12 12:54:44;;;;;;;10.20;2.03;;;26.90;58.60;;;;;;5010778;28;20495;-73
2022/07/12 12:57:11;;;;;;;4.07;1.70;;;26.70;59.20;;;;;;5010850;28;20278;-71
2022/07/12 12:59:37;;;;;;;4.75;2.45;;;26.80;59.60;;;;;;5010448;28;20081;-71
2022/07/12 13:02:04;;;;;;;3.83;2.45;;;26.80;60.60;;;;;;5009990;28;20022;-70
2022/07/12 13:04:30;;;;;;;;;;;26.90;60.40;;;;;;5010966;28;20120;-71
2022/07/12 13:06:57;;;;;;;3.88;1.85;;;27.00;60.10;;;;;;5010593;28;19917;-70
2022/07/12 13:09:23;;;;;;;3.15;2.55;;;27.00;60.30;;;;;;5010665;28;20046;-71
2022/07/12 13:11:49;;;;;;;9.70;2.83;;;26.90;60.30;;;;;;5010595;28;20124;-71
2022/07/12 13:14:15;;;;;;;5.40;2.50;;;26.90;60.90;;;;;;5010458;28;20615;-72